La Harpe, Kansas
Current Conditions -  °F | °C
As of 6:52 PM on Tuesday 21 Oct 2014 (Local Time) from KCNU Reporting Station
Clear Clear  
Wind Chill: 20°   Ceiling: Unl
Heat Index: 20°   Visibility: 10mi
Dew Point: 13°   Wind: 5mph
Humidity: 65%   Direction: 100°E
Pressure: 30.05"   Gusts: NA
Location:  37.92°N, 95.3°W
Report Text: KCNU 212352Z AUTO 10004KT 10SM CLR 20/13 A3005 RMK AO2 SLP172 T02000133 10244 20200 56003
Loading
Personal Weather Stations






























Interactive Weather Map
Tropical Storm Tracking
New forecast layout! Learn more

10-Day Weather Forecast

Advertisements
Track Severe Weather on mobile